Cable, Ohio
Current Conditions -  °F | °C
As of 10:33 AM on Friday 19 Dec 2014 (Local Time) from KMRT Reporting Station
Overcast Overcast  
Wind Chill: 28°   Ceiling: 1200
Heat Index: 28°   Visibility: 5mi
Dew Point: 22°   Wind: 0mph
Humidity: 79%   Direction: NA
Pressure: 30.28"   Gusts: NA
Location:  40.17°N, 83.63°W
Report Text: KMRT 191533Z AUTO 00000KT 5SM BKN012 OVC022 M02/M05 A3028 RMK AO2 T10211053
Loading
Personal Weather Stations






























Interactive Weather Map New forecast layout! Learn more

10-Day Weather Forecast

Advertisements
Track Severe Weather on mobile